Terminal Aerodrome Forecast
Issued by NWS

Home | Current Version | Previous Version | Text Only | Print | Product List | Glossary On
Versions: 1 2 3 4 5 6 7 8 9 10 11 12 13 14 15 16 17
000
FTUS44 KJAN 282300
TAFHKS
TAF
KHKS 282322Z 0100/0124 06005KT P6SM OVC100
     FM010600 13008KT P6SM OVC050
     FM010700 12005KT P6SM OVC015
     FM011000 11004KT 6SM BR OVC007
     FM011300 VRB04KT 4SM BR OVC007
     FM011900 09005KT 4SM -RA BR OVC003=

USA.gov is the U.S. government's official web portal to all federal, state and local government web resources and services.